KGXY/GXY METAR and TAF weather

Enter ICAO airport designator
Station Type Date Time Source
KGXY METAR 2020/09/19 17:56 UTC NOAA

KGXY 191756Z AUTO VRB03KT 4SM HZ CLR 29/09 A3004 RMK AO2 SLP128 T02890089 10289 20117 58009


Station Type Date Time Source
KGXY Decoded METAR 2020/09/19 17:56 UTC NOAA

Greeley, Greeley-Weld County Airport, CO, United States (KGXY) 40-26N 104-38W
Sep 19, 2020 - 01:56 PM EDT / 2020.09.19 1756 UTC
Wind: Variable at 3 MPH (3 KT):0
Visibility: 4 mile(s):0
Sky conditions: clear
Weather: haze
Temperature: 84.0 F (28.9 C)
Dew Point: 48.0 F (8.9 C)
Relative Humidity: 28%
Pressure (altimeter): 30.04 in. Hg (1017 hPa)
Pressure tendency: 0.03 inches (0.9 hPa) lower than three hours ago
ob: KGXY 191756Z AUTO VRB03KT 4SM HZ CLR 29/09 A3004 RMK AO2 SLP128 T02890089 10289 20117 58009
cycle: 18

Station Type Date Time Source
KGXY TAF UTC NOAA

Error!

Example: see airport list